Time;durP1;ratioP1;P1;durP2;ratioP2;P2;SDS_P1;SDS_P2;PMS_P1;PMS_P2;Temp;Humidity;BMP_temperature;BMP_pressure;BME280_temperature;BME280_humidity;BME280_pressure;Samples;Min_cycle;Max_cycle;Signal;HPM_P1;HPM_P2
2023/08/22 00:00:56;;;;;;;13.00;4.80;;;;;;;17.13;72.04;99134.91;5033072;28;20123;-37
2023/08/22 00:03:22;;;;;;;11.85;5.10;;;;;;;17.25;71.85;99155.91;5029928;28;20080;-37
2023/08/22 00:05:48;;;;;;;9.43;4.57;;;;;;;17.13;71.69;99130.47;5049879;28;20144;-37
2023/08/22 00:08:14;;;;;;;9.13;4.70;;;;;;;17.27;72.13;99158.44;5028833;28;20048;-37
2023/08/22 00:10:40;;;;;;;11.18;5.05;;;;;;;17.27;71.91;99163.69;5023528;28;20052;-37
2023/08/22 00:13:06;;;;;;;7.72;3.90;;;;;;;17.23;71.84;99144.66;5025089;28;20433;-36
2023/08/22 00:15:32;;;;;;;5.93;4.13;;;;;;;17.26;71.77;99154.97;5027450;28;20073;-38
2023/08/22 00:17:58;;;;;;;11.57;4.72;;;;;;;17.24;71.91;99156.84;5023608;28;20471;-38
2023/08/22 00:20:24;;;;;;;9.20;4.75;;;;;;;16.91;71.69;99106.66;5021586;28;20060;-37
2023/08/22 00:22:50;;;;;;;9.60;5.18;;;;;;;16.92;71.71;99106.56;5023384;28;20042;-37
2023/08/22 00:25:16;;;;;;;8.98;4.32;;;;;;;17.19;71.70;99142.34;5053475;28;20165;-38
2023/08/22 00:27:42;;;;;;;10.75;4.80;;;;;;;17.19;71.70;99145.81;5025003;28;20132;-38
2023/08/22 00:30:08;;;;;;;8.90;4.40;;;;;;;17.17;71.60;99141.59;5025786;28;20044;-37
2023/08/22 00:32:35;;;;;;;8.25;4.80;;;;;;;17.17;71.42;99141.59;5046474;28;20052;-37
2023/08/22 00:35:02;;;;;;;9.80;5.05;;;;;;;16.84;71.20;99097.53;5027621;28;20044;-37
2023/08/22 00:37:32;;;;;;;14.00;5.18;;;;;;;17.12;71.39;99144.56;5028668;28;20041;-37
2023/08/22 00:40:00;;;;;;;11.60;5.03;;;;;;;17.06;71.42;99139.72;5028822;28;20098;-38
2023/08/22 00:42:29;;;;;;;9.95;5.00;;;;;;;17.07;71.70;99124.81;5028203;28;20509;-40
2023/08/22 00:44:55;;;;;;;15.55;5.22;;;;;;;17.03;71.85;99136.47;5028455;28;20041;-36
2023/08/22 00:47:21;;;;;;;14.15;5.60;;;;;;;17.01;72.48;99141.03;5023725;28;20033;-36
2023/08/22 00:49:48;;;;;;;17.75;5.78;;;;;;;16.96;72.56;99133.44;5023426;28;20063;-38
2023/08/22 00:52:14;;;;;;;14.05;6.50;;;;;;;16.80;72.66;99114.47;5026523;28;20521;-38
2023/08/22 00:54:41;;;;;;;13.38;5.72;;;;;;;16.94;72.91;99127.47;4990874;28;20037;-37
2023/08/22 00:57:08;;;;;;;12.63;6.25;;;;;;;16.93;72.70;99126.63;5014110;28;20037;-36
2023/08/22 00:59:37;;;;;;;11.48;5.18;;;;;;;16.85;72.58;99107.91;5021064;28;20491;-37
2023/08/22 01:02:04;;;;;;;12.35;5.80;;;;;;;17.01;72.17;99120.00;5024333;28;20095;-38
2023/08/22 01:04:30;;;;;;;9.95;5.65;;;;;;;17.04;71.71;99111.91;5027709;28;20061;-37
2023/08/22 01:07:03;;;;;;;23.05;5.45;;;;;;;17.03;70.95;99111.06;5028628;28;20045;-37
2023/08/22 01:09:37;;;;;;;14.10;5.68;;;;;;;17.05;70.33;99111.81;5007980;28;20417;-37
2023/08/22 01:12:20;;;;;;;8.43;4.95;;;;;;;17.08;70.03;99111.56;5011361;28;20037;-37
2023/08/22 01:14:52;;;;;;;9.93;5.50;;;;;;;17.06;70.14;99096.88;5024864;28;20052;-37
2023/08/22 01:17:18;;;;;;;8.70;4.90;;;;;;;17.07;70.10;99099.38;5025653;28;20075;-38
2023/08/22 01:19:44;;;;;;;10.95;4.75;;;;;;;17.06;70.41;99100.34;5028180;28;20043;-37
2023/08/22 01:22:10;;;;;;;10.18;4.78;;;;;;;17.04;70.27;99102.25;5027329;28;20737;-36
2023/08/22 01:24:36;;;;;;;11.13;4.65;;;;;;;17.02;70.13;99105.91;5027552;28;20045;-36
2023/08/22 01:27:04;;;;;;;10.10;5.10;;;;;;;16.97;70.15;99102.75;5020887;28;20099;-37
2023/08/22 01:29:44;;;;;;;14.68;4.97;;;;;;;16.90;70.07;99091.88;5009680;28;20029;-37
2023/08/22 01:32:24;;;;;;;8.80;4.95;;;;;;;16.73;70.01;99073.81;5026867;28;20517;-37
2023/08/22 01:34:51;;;;;;;8.73;5.00;;;;;;;16.67;69.91;99072.44;5023701;28;20144;-38
2023/08/22 01:37:18;;;;;;;11.02;5.03;;;;;;;16.58;69.97;99067.81;5027352;28;20071;-38
2023/08/22 01:39:44;;;;;;;10.55;4.97;;;;;;;16.56;70.18;99064.44;5027692;28;20387;-37
2023/08/22 01:42:11;;;;;;;8.57;4.95;;;;;;;16.65;70.20;99087.44;5007063;28;20045;-38
2023/08/22 01:44:37;;;;;;;10.48;5.75;;;;;;;16.59;70.73;99092.31;5004638;28;20072;-37
2023/08/22 01:47:03;;;;;;;10.70;5.30;;;;;;;16.38;70.88;99065.72;5026610;28;20065;-38
2023/08/22 01:49:29;;;;;;;12.73;6.10;;;;;;;16.49;71.48;99092.03;5027115;28;20042;-38
2023/08/22 01:51:55;;;;;;;12.00;6.30;;;;;;;16.43;71.72;99093.28;5010087;28;20091;-37
2023/08/22 01:54:21;;;;;;;12.48;6.03;;;;;;;16.41;71.51;99091.72;5047511;28;20041;-36
2023/08/22 01:56:48;;;;;;;13.70;6.18;;;;;;;16.38;71.56;99087.50;5027444;28;20501;-37
2023/08/22 01:59:13;;;;;;;13.35;6.55;;;;;;;16.10;71.51;99043.94;5009663;28;20044;-42
2023/08/22 02:01:39;;;;;;;11.10;6.60;;;;;;;16.35;71.11;99092.13;5025462;28;20128;-36
2023/08/22 02:04:05;;;;;;;12.15;6.40;;;;;;;16.33;71.32;99086.16;5024508;28;20469;-37
2023/08/22 02:06:31;;;;;;;16.63;7.03;;;;;;;16.30;71.73;99084.56;5049163;28;20049;-37
2023/08/22 02:08:57;;;;;;;15.20;6.45;;;;;;;16.27;71.77;99084.78;4991140;28;20084;-39
2023/08/22 02:11:23;;;;;;;17.27;6.88;;;;;;;16.09;71.80;99049.28;5050959;28;20541;-37
2023/08/22 02:13:50;;;;;;;16.92;7.00;;;;;;;16.23;71.77;99072.81;5023082;28;20072;-38
2023/08/22 02:16:16;;;;;;;12.73;6.38;;;;;;;16.06;71.72;99045.13;5026988;28;20540;-37
2023/08/22 02:18:42;;;;;;;10.88;6.68;;;;;;;16.26;71.88;99079.63;5026410;28;20044;-38
2023/08/22 02:21:08;;;;;;;11.00;6.88;;;;;;;16.24;72.24;99079.72;5001788;28;20492;-38
2023/08/22 02:23:34;;;;;;;13.98;7.00;;;;;;;16.26;72.51;99080.47;5018950;28;20037;-38
2023/08/22 02:26:00;;;;;;;12.18;6.32;;;;;;;16.26;72.46;99077.88;5018970;28;20052;-37
2023/08/22 02:28:26;;;;;;;12.90;6.80;;;;;;;16.26;72.13;99075.25;5026519;28;20056;-37
2023/08/22 02:30:56;;;;;;;12.75;6.75;;;;;;;16.15;72.47;99051.50;5026713;28;20501;-38
2023/08/22 02:33:22;;;;;;;15.30;7.25;;;;;;;16.32;72.60;99072.22;5008834;28;20033;-37
2023/08/22 02:35:49;;;;;;;15.80;7.20;;;;;;;16.32;72.71;99069.59;5009050;28;20158;-37
2023/08/22 02:38:16;;;;;;;12.00;6.32;;;;;;;16.32;72.59;99060.88;5025748;28;20091;-37
2023/08/22 02:40:42;;;;;;;12.45;7.00;;;;;;;16.32;72.46;99066.97;5026064;28;20457;-38
2023/08/22 02:43:08;;;;;;;12.05;6.78;;;;;;;16.32;72.42;99053.84;5021988;28;20041;-41
2023/08/22 02:45:34;;;;;;;14.63;6.90;;;;;;;16.33;72.56;99058.13;5020420;28;20568;-37
2023/08/22 02:48:00;;;;;;;12.35;6.53;;;;;;;16.28;72.49;99057.59;5026195;28;20061;-38
2023/08/22 02:50:28;;;;;;;13.35;7.45;;;;;;;16.24;72.68;99052.66;5019343;28;20123;-38
2023/08/22 02:52:54;;;;;;;13.43;8.07;;;;;;;16.26;72.77;99059.50;5027311;28;20041;-37
2023/08/22 02:55:20;;;;;;;15.95;6.95;;;;;;;16.25;72.76;99062.22;5008309;28;20347;-38
2023/08/22 02:57:46;;;;;;;11.57;6.65;;;;;;;16.25;72.87;99049.94;5024367;28;20159;-36
2023/08/22 03:00:13;;;;;;;13.77;6.97;;;;;;;16.26;72.96;99048.16;5025149;28;20048;-37
2023/08/22 03:02:40;;;;;;;14.02;6.70;;;;;;;16.26;72.97;99054.25;5025894;28;20091;-38
2023/08/22 03:05:13;;;;;;;16.88;7.82;;;;;;;16.09;73.00;99023.91;5024905;28;20140;-37
2023/08/22 03:07:41;;;;;;;15.45;7.68;;;;;;;16.06;73.09;99020.66;5022513;28;20041;-39
2023/08/22 03:10:09;;;;;;;;;;;;;;;16.24;73.02;99056.13;5019878;28;20460;-37
2023/08/22 03:12:35;;;;;;;15.68;6.57;;;;;;;16.22;73.25;99054.56;5009126;28;19917;-38
2023/08/22 03:15:03;;;;;;;14.10;7.00;;;;;;;16.21;73.25;99056.34;5025749;28;20428;-37
2023/08/22 03:17:32;;;;;;;21.17;7.45;;;;;;;15.90;73.13;99004.28;5031339;28;20421;-37
2023/08/22 03:19:58;;;;;;;12.88;7.15;;;;;;;16.22;73.47;99054.56;5026136;28;20061;-37
2023/08/22 03:22:24;;;;;;;15.57;7.13;;;;;;;16.24;73.22;99048.25;5030921;28;20041;-38
2023/08/22 03:24:50;;;;;;;14.40;7.03;;;;;;;16.28;72.96;99048.88;5028883;28;20053;-37
2023/08/22 03:27:17;;;;;;;13.48;6.97;;;;;;;16.29;73.14;99051.41;5030391;28;20048;-38
2023/08/22 03:29:43;;;;;;;16.40;8.40;;;;;;;16.14;73.01;99012.25;5037084;28;20045;-38
2023/08/22 03:32:09;;;;;;;18.00;7.38;;;;;;;16.15;72.59;99000.84;5012530;28;20493;-39
2023/08/22 03:34:35;;;;;;;16.73;8.98;;;;;;;16.33;72.86;99031.88;5026431;28;20045;-37
2023/08/22 03:37:02;;;;;;;16.25;7.68;;;;;;;16.33;73.04;99029.25;5024996;28;20037;-38
2023/08/22 03:39:28;;;;;;;20.60;8.10;;;;;;;16.33;72.70;99015.34;5022355;28;20163;-37
2023/08/22 03:41:54;;;;;;;17.52;9.30;;;;;;;16.37;72.92;99024.66;5021798;28;20163;-37
2023/08/22 03:44:20;;;;;;;28.10;8.95;;;;;;;16.39;73.03;99026.22;5020395;28;20152;-37
2023/08/22 03:46:47;;;;;;;15.77;7.47;;;;;;;16.27;73.01;98995.59;5025031;28;20531;-38
2023/08/22 03:49:24;;;;;;;16.90;7.50;;;;;;;16.44;73.02;99018.03;5008504;28;20136;-38
2023/08/22 03:51:51;;;;;;;16.45;7.63;;;;;;;16.46;73.21;99024.88;5009701;28;20037;-37
2023/08/22 03:54:17;;;;;;;19.30;8.20;;;;;;;16.50;73.31;99012.38;5029972;28;20048;-38
2023/08/22 03:56:44;;;;;;;16.73;8.77;;;;;;;16.54;73.24;99012.06;5027668;28;20124;-38
2023/08/22 03:59:10;;;;;;;20.52;8.98;;;;;;;16.61;72.93;99014.28;5028832;28;20045;-38
2023/08/22 04:01:36;;;;;;;14.68;7.85;;;;;;;16.54;72.51;98984.97;5023167;28;20634;-37
2023/08/22 04:04:01;;;;;;;16.08;8.32;;;;;;;16.79;72.65;99021.72;5026063;28;20053;-38
2023/08/22 04:06:28;;;;;;;20.67;8.38;;;;;;;16.79;72.53;99005.97;5028312;28;20475;-36
2023/08/22 04:08:55;;;;;;;16.27;7.85;;;;;;;16.91;72.18;99012.13;5026561;28;20148;-37
2023/08/22 04:11:21;;;;;;;14.90;8.10;;;;;;;16.73;71.88;98977.53;5028429;28;20525;-38
2023/08/22 04:13:48;;;;;;;16.50;8.00;;;;;;;17.03;71.93;99016.50;5028770;28;20084;-38
2023/08/22 04:16:14;;;;;;;20.80;8.85;;;;;;;16.98;71.77;98988.91;4996275;28;20619;-38
2023/08/22 04:18:40;;;;;;;19.33;8.70;;;;;;;17.18;71.99;99004.06;5027035;28;20108;-38
2023/08/22 04:21:06;;;;;;;19.10;8.00;;;;;;;17.29;71.45;99010.22;5027957;28;20137;-37
2023/08/22 04:23:32;;;;;;;18.88;7.97;;;;;;;17.21;71.18;98974.97;5034641;28;20136;-37
2023/08/22 04:25:58;;;;;;;19.08;8.95;;;;;;;17.55;70.99;99004.84;5050097;28;20045;-38
2023/08/22 04:28:24;;;;;;;15.60;8.30;;;;;;;17.64;70.34;98997.16;5027937;28;20065;-37
2023/08/22 04:30:56;;;;;;;18.17;8.90;;;;;;;17.78;69.60;99004.03;5025105;28;20514;-36
2023/08/22 04:33:22;;;;;;;17.27;9.05;;;;;;;17.90;68.77;98997.03;5028844;28;20060;-37
2023/08/22 04:35:50;;;;;;;16.38;8.85;;;;;;;17.98;67.85;98998.13;5028290;28;20059;-38
2023/08/22 04:38:16;;;;;;;19.05;8.35;;;;;;;18.06;66.95;98994.88;5011126;28;20091;-37
2023/08/22 04:40:43;;;;;;;17.33;9.18;;;;;;;18.12;66.41;98991.78;5011229;28;20047;-37
2023/08/22 04:43:32;;;;;;;17.55;8.25;;;;;;;18.10;66.14;98981.41;5018087;28;20067;-37
2023/08/22 04:46:01;;;;;;;19.55;8.25;;;;;;;18.19;65.69;98988.59;5028644;28;20471;-38
2023/08/22 04:48:28;;;;;;;19.48;9.02;;;;;;;18.25;65.51;98995.19;5028337;28;20188;-37
2023/08/22 04:50:54;;;;;;;16.08;9.07;;;;;;;18.42;65.24;98989.44;5027494;28;20053;-38
2023/08/22 04:53:20;;;;;;;18.27;8.50;;;;;;;18.65;64.51;98990.31;5010787;28;20049;-36
2023/08/22 04:55:46;;;;;;;19.17;8.70;;;;;;;18.92;64.12;98998.69;5011988;28;20046;-38
2023/08/22 04:58:12;;;;;;;18.98;9.50;;;;;;;19.10;63.40;98977.94;5029479;28;20088;-38
2023/08/22 05:00:38;;;;;;;16.48;8.32;;;;;;;19.47;62.91;98998.72;5026908;28;20540;-38
2023/08/22 05:03:05;;;;;;;19.90;8.50;;;;;;;19.67;62.16;99000.56;5027768;28;20049;-37
2023/08/22 05:05:32;;;;;;;22.77;8.38;;;;;;;19.87;61.37;98997.09;5027256;28;20057;-37
2023/08/22 05:07:58;;;;;;;20.13;8.23;;;;;;;20.05;61.06;98999.97;5027161;28;20037;-38
2023/08/22 05:10:25;;;;;;;16.45;8.18;;;;;;;20.14;60.31;98997.41;5028107;28;20467;-38
2023/08/22 05:12:51;;;;;;;20.30;7.82;;;;;;;20.24;59.67;98992.19;5011477;28;20038;-38
2023/08/22 05:15:17;;;;;;;17.10;8.40;;;;;;;20.36;59.73;98993.81;5006525;28;20061;-37
2023/08/22 05:17:45;;;;;;;16.85;7.63;;;;;;;20.44;59.18;98994.00;5026015;28;20151;-38
2023/08/22 05:20:13;;;;;;;18.15;8.18;;;;;;;20.47;58.77;98971.75;5033251;28;22013;-37
2023/08/22 05:22:40;;;;;;;22.17;8.85;;;;;;;20.84;58.35;98988.72;5028699;28;20132;-38
2023/08/22 05:25:06;;;;;;;15.23;7.68;;;;;;;21.14;57.38;98993.97;5028122;28;20076;-37
2023/08/22 05:27:33;;;;;;;14.00;8.65;;;;;;;21.26;56.83;98965.63;5010758;28;20101;-37
2023/08/22 05:29:59;;;;;;;20.25;8.30;;;;;;;21.65;55.48;98995.59;5024211;28;20038;-38
2023/08/22 05:32:25;;;;;;;18.58;7.57;;;;;;;21.77;54.65;98997.09;5010368;28;20044;-37
2023/08/22 05:34:51;;;;;;;19.25;8.88;;;;;;;21.82;54.28;98994.91;5027567;28;20049;-37
2023/08/22 05:37:17;;;;;;;20.10;8.20;;;;;;;21.80;53.86;98996.00;5026883;28;20045;-37
2023/08/22 05:39:44;;;;;;;21.92;8.60;;;;;;;21.85;53.79;98986.66;5027359;28;20521;-38
2023/08/22 05:42:10;;;;;;;20.50;8.27;;;;;;;21.99;53.75;98988.06;5023812;28;20051;-38
2023/08/22 05:44:36;;;;;;;16.65;7.40;;;;;;;22.17;53.53;98983.72;5009839;28;20045;-38
2023/08/22 05:47:04;;;;;;;14.87;8.03;;;;;;;22.39;53.09;98980.75;5007340;28;20497;-38
2023/08/22 05:49:32;;;;;;;20.65;10.70;;;;;;;22.46;52.33;98982.78;5027249;28;20060;-37
2023/08/22 05:52:03;;;;;;;15.43;8.10;;;;;;;22.33;51.99;98970.72;5021946;28;20114;-38
2023/08/22 05:54:31;;;;;;;19.50;8.45;;;;;;;22.19;52.35;98970.34;5026327;28;20072;-37
2023/08/22 05:56:58;;;;;;;15.03;8.43;;;;;;;22.11;52.75;98971.03;5011168;28;20041;-37
2023/08/22 05:59:25;;;;;;;12.88;8.13;;;;;;;21.83;53.10;98934.84;4994440;28;20046;-37
2023/08/22 06:01:51;;;;;;;16.13;7.40;;;;;;;22.01;53.18;98959.66;5010422;28;20392;-37
2023/08/22 06:04:17;;;;;;;19.88;8.52;;;;;;;22.03;53.19;98956.88;5025831;28;20057;-39
2023/08/22 06:06:45;;;;;;;15.32;8.20;;;;;;;22.08;53.25;98960.75;5024699;28;20041;-37
2023/08/22 06:09:12;;;;;;;19.20;8.65;;;;;;;22.15;53.11;98961.84;5025988;28;20078;-39
2023/08/22 06:11:38;;;;;;;15.23;8.05;;;;;;;22.25;52.52;98952.03;5015503;28;20060;-41
2023/08/22 06:14:05;;;;;;;27.20;8.55;;;;;;;22.34;52.69;98948.56;5026562;28;20536;-38
2023/08/22 06:16:33;;;;;;;16.98;8.48;;;;;;;22.47;52.33;98948.22;5025158;28;20045;-38
2023/08/22 06:19:02;;;;;;;24.25;8.60;;;;;;;22.63;51.77;98951.06;5005453;28;20038;-37
2023/08/22 06:21:28;;;;;;;22.70;9.05;;;;;;;22.79;51.31;98946.00;5009116;28;20125;-38
2023/08/22 06:23:54;;;;;;;21.85;8.40;;;;;;;23.02;50.95;98949.09;5022298;28;20037;-37
2023/08/22 06:26:22;;;;;;;15.07;8.35;;;;;;;23.32;50.06;98950.53;5020015;28;20537;-38
2023/08/22 06:28:50;;;;;;;13.90;8.40;;;;;;;23.49;49.70;98946.25;5010522;28;20052;-38
2023/08/22 06:31:16;;;;;;;21.95;8.38;;;;;;;23.73;49.54;98935.84;5023100;28;20546;-39
2023/08/22 06:33:42;;;;;;;19.35;8.13;;;;;;;24.51;47.88;98936.69;5035980;28;20050;-41
2023/08/22 06:36:09;;;;;;;26.30;10.35;;;;;;;25.16;46.47;98937.78;5049210;28;20188;-39
2023/08/22 06:38:35;;;;;;;16.45;9.07;;;;;;;25.18;46.32;98938.44;5025793;28;20469;-38
2023/08/22 06:41:07;;;;;;;17.58;8.25;;;;;;;25.17;45.61;98938.63;5028252;28;20041;-38
2023/08/22 06:43:34;;;;;;;17.65;8.43;;;;;;;25.09;45.22;98934.09;5020489;28;20556;-37
2023/08/22 06:46:01;;;;;;;21.35;8.93;;;;;;;25.30;44.68;98929.16;5026952;28;20041;-38
2023/08/22 06:48:27;;;;;;;18.90;10.07;;;;;;;25.56;43.95;98918.38;5009881;28;20041;-37
2023/08/22 06:50:55;;;;;;;18.60;9.20;;;;;;;26.17;43.63;98930.28;5026624;28;20087;-38
2023/08/22 06:53:21;;;;;;;32.80;18.67;;;;;;;26.58;42.91;98925.72;5023523;28;20041;-38
2023/08/22 06:55:48;;;;;;;17.42;9.27;;;;;;;26.80;42.11;98903.59;5002713;28;20045;-37
2023/08/22 06:58:14;;;;;;;21.67;9.25;;;;;;;27.48;41.66;98918.06;5008044;28;20436;-38
2023/08/22 07:00:40;;;;;;;21.38;8.68;;;;;;;28.31;40.05;98918.81;5027579;28;20099;-37
2023/08/22 07:03:06;;;;;;;19.40;8.80;;;;;;;28.31;39.55;98926.84;5013237;28;20041;-38
2023/08/22 07:05:34;;;;;;;19.05;9.45;;;;;;;28.13;39.21;98916.50;5026840;28;20060;-38
2023/08/22 07:08:03;;;;;;;19.30;10.70;;;;;;;27.93;39.17;98893.13;5005036;28;20575;-39
2023/08/22 07:10:29;;;;;;;15.90;8.63;;;;;;;27.94;39.56;98914.34;5031123;28;20528;-38
2023/08/22 07:12:55;;;;;;;14.88;8.45;;;;;;;27.65;39.98;98900.91;5027757;28;20041;-38
2023/08/22 07:15:21;;;;;;;18.17;8.93;;;;;;;27.24;39.83;98913.72;5024557;28;20048;-38
2023/08/22 07:17:47;;;;;;;21.00;10.00;;;;;;;26.84;40.30;98894.25;5025093;28;20044;-38
2023/08/22 07:20:13;;;;;;;21.15;8.45;;;;;;;26.94;40.43;98894.91;5025207;28;20034;-38
2023/08/22 07:22:39;;;;;;;22.17;9.57;;;;;;;27.29;39.97;98911.34;5023688;28;20045;-38
2023/08/22 07:25:06;;;;;;;20.38;8.80;;;;;;;27.20;39.56;98901.72;5026092;28;20037;-39
2023/08/22 07:27:32;;;;;;;18.70;9.10;;;;;;;27.20;39.54;98902.56;5022903;28;20042;-38
2023/08/22 07:29:59;;;;;;;16.65;8.45;;;;;;;28.11;38.61;98902.44;5024407;28;21374;-39
2023/08/22 07:32:25;;;;;;;16.83;8.20;;;;;;;28.40;37.90;98898.16;5033873;28;20041;-39
2023/08/22 07:34:52;;;;;;;15.60;8.88;;;;;;;28.17;37.77;98896.41;5027940;28;20077;-39
2023/08/22 07:37:18;;;;;;;19.33;8.88;;;;;;;28.53;37.29;98901.00;5024336;28;21057;-39
2023/08/22 07:39:44;;;;;;;19.42;9.60;;;;;;;29.21;36.63;98903.25;5028860;28;20603;-38
2023/08/22 07:42:10;;;;;;;21.23;9.77;;;;;;;29.87;35.71;98893.16;5023457;28;20052;-39
2023/08/22 07:44:36;;;;;;;21.75;8.82;;;;;;;29.74;35.59;98903.78;5031253;28;20041;-38
2023/08/22 07:47:02;;;;;;;18.38;9.15;;;;;;;30.59;34.32;98904.38;5028184;28;20135;-39
2023/08/22 07:49:28;;;;;;;19.85;9.73;;;;;;;31.47;33.46;98895.34;5012880;28;21685;-39
2023/08/22 07:51:54;;;;;;;15.85;9.45;;;;;;;32.21;32.36;98905.91;5030796;28;20086;-45
2023/08/22 07:54:21;;;;;;;16.75;9.93;;;;;;;32.99;31.09;98898.59;5022841;28;20424;-39
2023/08/22 07:56:47;;;;;;;18.42;9.73;;;;;;;33.01;30.68;98883.06;5030764;28;20055;-39
2023/08/22 07:59:13;;;;;;;17.42;8.85;;;;;;;32.40;31.38;98884.56;5011791;28;20459;-38
2023/08/22 08:01:41;;;;;;;16.33;9.13;;;;;;;31.33;32.80;98866.00;5018551;28;20045;-40
2023/08/22 08:04:08;;;;;;;16.50;9.60;;;;;;;30.45;33.12;98883.88;5028157;28;20061;-39
2023/08/22 08:06:35;;;;;;;18.60;9.60;;;;;;;29.65;34.32;98878.16;5027174;28;20048;-41
2023/08/22 08:09:05;;;;;;;18.35;10.18;;;;;;;29.34;35.17;98857.06;5021680;28;20025;-39
2023/08/22 08:11:32;;;;;;;15.85;9.88;;;;;;;29.57;35.22;98880.97;5019101;28;20047;-39
2023/08/22 08:13:58;;;;;;;19.65;9.00;;;;;;;29.38;35.53;98880.59;5022330;28;20049;-39
2023/08/22 08:16:25;;;;;;;19.20;9.80;;;;;;;28.92;35.22;98879.28;5016859;28;20428;-38
2023/08/22 08:18:54;;;;;;;21.90;9.18;;;;;;;28.42;35.83;98878.22;5026408;28;20037;-38
2023/08/22 08:21:20;;;;;;;18.38;9.65;;;;;;;27.96;36.58;98874.88;5006644;28;20123;-38
2023/08/22 08:23:46;;;;;;;17.15;9.10;;;;;;;27.52;37.29;98872.16;5028555;28;20052;-38
2023/08/22 08:26:12;;;;;;;18.52;9.23;;;;;;;27.25;37.25;98876.16;5005711;28;20131;-38
2023/08/22 08:28:39;;;;;;;20.45;9.95;;;;;;;26.77;38.16;98881.78;5002774;28;20037;-39
2023/08/22 08:31:06;;;;;;;17.58;9.05;;;;;;;26.15;38.52;98869.19;5012745;28;20052;-38
2023/08/22 08:33:32;;;;;;;17.25;8.77;;;;;;;25.67;39.58;98882.59;5034806;28;20128;-39
2023/08/22 08:35:59;;;;;;;22.38;8.55;;;;;;;25.51;40.70;98877.25;5012668;28;20145;-38
2023/08/22 08:38:25;;;;;;;19.08;8.35;;;;;;;25.42;40.46;98875.59;5007893;28;20568;-39
2023/08/22 08:40:52;;;;;;;17.38;8.10;;;;;;;25.26;40.89;98871.09;5029952;28;20042;-38
2023/08/22 08:43:19;;;;;;;17.02;7.68;;;;;;;25.13;41.03;98868.91;5030403;28;20041;-39
2023/08/22 08:45:45;;;;;;;17.38;7.25;;;;;;;24.81;40.67;98845.72;5027508;28;20053;-38
2023/08/22 08:48:11;;;;;;;16.33;7.35;;;;;;;24.84;41.16;98871.19;5023880;28;20103;-39
2023/08/22 08:50:38;;;;;;;17.13;8.18;;;;;;;24.67;41.53;98883.59;5026272;28;20052;-39
2023/08/22 08:53:04;;;;;;;14.38;8.35;;;;;;;24.33;42.20;98874.84;5022517;28;20045;-38
2023/08/22 08:55:30;;;;;;;17.33;8.55;;;;;;;24.18;42.60;98871.91;5030873;28;20045;-38
2023/08/22 08:57:56;;;;;;;17.67;7.90;;;;;;;24.31;43.13;98874.16;5035235;28;20136;-38
2023/08/22 09:00:22;;;;;;;16.65;7.78;;;;;;;24.30;43.47;98849.41;5013237;28;20497;-39
2023/08/22 09:02:49;;;;;;;19.52;8.70;;;;;;;24.63;43.65;98876.09;5032426;28;20075;-38
2023/08/22 09:05:15;;;;;;;19.75;9.10;;;;;;;24.55;42.94;98845.00;5029440;28;20595;-38
2023/08/22 09:07:44;;;;;;;15.25;6.97;;;;;;;24.59;42.28;98845.53;5028570;28;20044;-37
2023/08/22 09:10:10;;;;;;;10.25;5.97;;;;;;;24.57;41.84;98874.91;5018375;28;20037;-38
2023/08/22 09:12:38;;;;;;;7.40;2.72;;;;;;;24.12;39.87;98859.28;5011658;28;20112;-36
2023/08/22 09:15:11;;;;;;;2.95;2.03;;;;;;;24.02;39.39;98869.97;5028099;28;20071;-38
2023/08/22 09:17:38;;;;;;;4.80;2.00;;;;;;;23.79;39.27;98876.00;5029564;28;20052;-38
2023/08/22 09:20:10;;;;;;;3.50;1.90;;;;;;;23.84;39.31;98877.19;5017824;28;20044;-39
2023/08/22 09:22:36;;;;;;;2.65;1.73;;;;;;;23.87;38.73;98876.88;5028501;28;20049;-38
2023/08/22 09:25:04;;;;;;;4.70;2.20;;;;;;;23.78;38.06;98851.25;5028732;28;20052;-38
2023/08/22 09:27:30;;;;;;;2.85;2.08;;;;;;;24.08;38.22;98872.00;5027731;28;20042;-37
2023/08/22 09:30:04;;;;;;;2.45;1.65;;;;;;;24.21;38.11;98870.78;5022007;28;20119;-40
2023/08/22 09:32:35;;;;;;;6.30;1.92;;;;;;;24.40;37.76;98852.75;5019286;28;20045;-38
2023/08/22 09:35:02;;;;;;;6.97;2.40;;;;;;;24.77;37.38;98872.81;5020818;28;20049;-38
2023/08/22 09:37:36;;;;;;;2.97;2.17;;;;;;;24.84;37.41;98857.88;5026503;28;20045;-38
2023/08/22 09:40:08;;;;;;;6.00;2.70;;;;;;;24.97;37.68;98850.28;5026189;28;20041;-38
2023/08/22 09:42:38;;;;;;;6.45;3.35;;;;;;;25.40;37.45;98875.75;5010542;28;20037;-38
2023/08/22 09:45:22;;;;;;;10.20;3.70;;;;;;;25.06;38.71;98867.94;5043463;28;20175;-38
2023/08/22 09:47:49;;;;;;;7.75;4.00;;;;;;;25.13;39.81;98873.41;5038195;28;20166;-38
2023/08/22 09:50:16;;;;;;;8.07;4.05;;;;;;;25.33;39.62;98874.78;5025279;28;20038;-38
2023/08/22 09:52:43;;;;;;;8.00;3.23;;;;;;;25.13;39.62;98868.91;5008772;28;20044;-39
2023/08/22 09:55:10;;;;;;;6.75;3.13;;;;;;;24.87;39.93;98874.38;5025260;28;20676;-39
2023/08/22 09:57:37;;;;;;;3.90;2.75;;;;;;;24.59;39.96;98872.13;5026205;28;20044;-39
2023/08/22 10:00:05;;;;;;;4.80;3.20;;;;;;;24.13;40.50;98823.72;5026664;28;20048;-39
2023/08/22 10:02:41;;;;;;;4.88;3.20;;;;;;;24.36;41.26;98869.19;5012612;28;20140;-40
2023/08/22 10:05:09;;;;;;;11.00;3.50;;;;;;;24.41;41.08;98866.88;5026761;28;20061;-39
2023/08/22 10:07:35;;;;;;;6.50;3.10;;;;;;;24.12;41.23;98864.59;5008546;28;20532;-40
2023/08/22 10:10:04;;;;;;;8.18;3.17;;;;;;;23.99;42.35;98878.28;5036571;28;20041;-40
2023/08/22 10:12:30;;;;;;;12.10;3.35;;;;;;;23.92;43.07;98869.25;5010170;28;20124;-39
2023/08/22 10:14:57;;;;;;;8.00;4.72;;;;;;;23.98;44.14;98876.59;5028427;28;20033;-40
2023/08/22 10:17:27;;;;;;;9.18;4.78;;;;;;;23.82;45.33;98880.97;5008343;28;20526;-38
2023/08/22 10:20:00;;;;;;;11.98;5.05;;;;;;;23.50;46.10;98847.09;5048716;28;20095;-39
2023/08/22 10:22:30;;;;;;;10.07;4.93;;;;;;;23.51;46.38;98867.31;5020597;28;20081;-38
2023/08/22 10:25:08;;;;;;;8.77;4.43;;;;;;;23.59;46.16;98880.66;5025891;28;20525;-39
2023/08/22 10:27:40;;;;;;;9.80;4.50;;;;;;;23.33;47.02;98883.25;5026754;28;20487;-38
2023/08/22 10:30:12;;;;;;;15.13;7.05;;;;;;;23.12;47.70;98888.03;5031398;28;20037;-38
2023/08/22 10:32:39;;;;;;;12.07;5.20;;;;;;;22.95;48.71;98900.28;5028030;28;20499;-38
2023/08/22 10:35:13;;;;;;;11.35;5.53;;;;;;;22.57;50.04;98890.72;5027647;28;20122;-39
2023/08/22 10:37:50;;;;;;;10.50;5.15;;;;;;;22.54;50.71;98893.66;5021935;28;20045;-39
2023/08/22 10:40:29;;;;;;;12.55;5.93;;;;;;;22.36;51.12;98900.72;5008160;28;20132;-38
2023/08/22 10:43:08;;;;;;;8.88;5.10;;;;;;;22.30;51.62;98891.53;5028036;28;20128;-39
2023/08/22 10:45:50;;;;;;;9.02;5.18;;;;;;;22.26;52.75;98899.91;5027947;28;20052;-38
2023/08/22 10:48:18;;;;;;;11.65;5.72;;;;;;;22.29;52.72;98903.13;5027804;28;20072;-38
2023/08/22 10:50:45;;;;;;;8.27;5.17;;;;;;;22.48;52.47;98896.06;5026225;28;20119;-39
2023/08/22 10:53:18;;;;;;;7.07;4.07;;;;;;;22.59;51.92;98896.72;5025353;28;20044;-39
2023/08/22 10:55:44;;;;;;;10.32;4.35;;;;;;;22.31;51.99;98887.91;5025877;28;20048;-38
2023/08/22 10:58:33;;;;;;;9.27;4.32;;;;;;;22.34;52.26;98911.47;5022396;28;20044;-38
2023/08/22 11:00:59;;;;;;;9.15;4.43;;;;;;;22.34;52.33;98908.00;5024072;28;20041;-39
2023/08/22 11:03:24;;;;;;;10.77;4.60;;;;;;;22.52;51.41;98908.88;5032013;28;20052;-38
2023/08/22 11:05:50;;;;;;;7.72;4.03;;;;;;;22.36;51.81;98903.34;5015002;28;20107;-38
2023/08/22 11:08:16;;;;;;;5.60;3.85;;;;;;;22.36;51.87;98908.66;5025424;28;20152;-38
2023/08/22 11:10:43;;;;;;;6.55;3.97;;;;;;;22.40;51.21;98905.56;5025680;28;20420;-38
2023/08/22 11:13:09;;;;;;;4.18;2.63;;;;;;;22.31;49.83;98908.25;5033934;28;20045;-38
2023/08/22 11:15:35;;;;;;;8.13;3.72;;;;;;;22.11;49.01;98896.91;5035751;28;20068;-39
2023/08/22 11:18:04;;;;;;;6.80;2.67;;;;;;;22.27;48.71;98907.72;5026890;28;20100;-39
2023/08/22 11:20:30;;;;;;;;;;;;;;;22.07;48.40;98908.78;5029536;28;20045;-39
2023/08/22 11:22:56;;;;;;;7.43;3.22;;;;;;;21.98;48.69;98907.81;5029357;28;19970;-41
2023/08/22 11:25:23;;;;;;;5.47;2.50;;;;;;;21.86;48.07;98877.19;5027832;28;20049;-39
2023/08/22 11:27:49;;;;;;;5.97;3.00;;;;;;;22.07;48.10;98910.59;5025539;28;20037;-38